sensor_id;sensor_type;location;lat;lon;timestamp;P1;durP1;ratioP1;P2;durP2;ratioP2
26014;SDS011;13793;55.388;37.844;2023-05-27T00:00:59;31.45;;;21.90;;
26014;SDS011;13793;55.388;37.844;2023-05-27T00:03:30;24.90;;;21.15;;
26014;SDS011;13793;55.388;37.844;2023-05-27T00:06:11;24.85;;;20.70;;
26014;SDS011;13793;55.388;37.844;2023-05-27T00:08:42;23.87;;;19.80;;
26014;SDS011;13793;55.388;37.844;2023-05-27T00:11:23;25.17;;;20.45;;
26014;SDS011;13793;55.388;37.844;2023-05-27T00:13:54;24.10;;;20.15;;
26014;SDS011;13793;55.388;37.844;2023-05-27T00:16:34;24.80;;;19.27;;
26014;SDS011;13793;55.388;37.844;2023-05-27T00:19:06;24.70;;;20.50;;
26014;SDS011;13793;55.388;37.844;2023-05-27T00:22:07;21.80;;;19.57;;
26014;SDS011;13793;55.388;37.844;2023-05-27T00:24:38;24.23;;;18.95;;
26014;SDS011;13793;55.388;37.844;2023-05-27T00:27:20;22.27;;;19.87;;
26014;SDS011;13793;55.388;37.844;2023-05-27T00:29:50;22.73;;;19.12;;
26014;SDS011;13793;55.388;37.844;2023-05-27T00:32:37;22.50;;;20.20;;
26014;SDS011;13793;55.388;37.844;2023-05-27T00:35:08;22.95;;;19.25;;
26014;SDS011;13793;55.388;37.844;2023-05-27T00:37:49;23.22;;;19.17;;
26014;SDS011;13793;55.388;37.844;2023-05-27T00:40:21;24.02;;;19.75;;
26014;SDS011;13793;55.388;37.844;2023-05-27T00:43:02;20.10;;;17.55;;
26014;SDS011;13793;55.388;37.844;2023-05-27T00:45:33;22.98;;;18.32;;
26014;SDS011;13793;55.388;37.844;2023-05-27T00:48:15;21.93;;;18.15;;
26014;SDS011;13793;55.388;37.844;2023-05-27T00:50:45;20.12;;;17.95;;
26014;SDS011;13793;55.388;37.844;2023-05-27T00:53:27;23.83;;;19.90;;
26014;SDS011;13793;55.388;37.844;2023-05-27T00:55:58;20.43;;;17.62;;
26014;SDS011;13793;55.388;37.844;2023-05-27T00:58:42;19.82;;;17.50;;
26014;SDS011;13793;55.388;37.844;2023-05-27T01:01:13;20.30;;;18.12;;
26014;SDS011;13793;55.388;37.844;2023-05-27T01:03:54;22.37;;;16.80;;
26014;SDS011;13793;55.388;37.844;2023-05-27T01:12:16;20.55;;;16.57;;
26014;SDS011;13793;55.388;37.844;2023-05-27T01:14:50;20.62;;;17.52;;
26014;SDS011;13793;55.388;37.844;2023-05-27T01:17:32;19.95;;;17.67;;
26014;SDS011;13793;55.388;37.844;2023-05-27T01:20:17;22.58;;;18.00;;
26014;SDS011;13793;55.388;37.844;2023-05-27T01:22:51;19.87;;;16.73;;
26014;SDS011;13793;55.388;37.844;2023-05-27T01:25:32;19.02;;;16.10;;
26014;SDS011;13793;55.388;37.844;2023-05-27T01:28:03;19.45;;;16.90;;
26014;SDS011;13793;55.388;37.844;2023-05-27T01:30:44;19.20;;;17.20;;
26014;SDS011;13793;55.388;37.844;2023-05-27T01:33:17;21.90;;;17.62;;
26014;SDS011;13793;55.388;37.844;2023-05-27T01:35:59;21.05;;;17.87;;
26014;SDS011;13793;55.388;37.844;2023-05-27T01:38:31;19.20;;;16.42;;
26014;SDS011;13793;55.388;37.844;2023-05-27T01:41:13;19.32;;;17.25;;
26014;SDS011;13793;55.388;37.844;2023-05-27T01:43:44;22.93;;;18.37;;
26014;SDS011;13793;55.388;37.844;2023-05-27T01:46:25;22.10;;;18.62;;
26014;SDS011;13793;55.388;37.844;2023-05-27T01:48:56;22.30;;;17.20;;
26014;SDS011;13793;55.388;37.844;2023-05-27T01:51:43;23.75;;;17.55;;
26014;SDS011;13793;55.388;37.844;2023-05-27T01:54:14;20.27;;;17.80;;
26014;SDS011;13793;55.388;37.844;2023-05-27T01:56:55;19.55;;;16.12;;
26014;SDS011;13793;55.388;37.844;2023-05-27T01:59:27;21.30;;;17.85;;
26014;SDS011;13793;55.388;37.844;2023-05-27T02:02:08;21.57;;;17.65;;
26014;SDS011;13793;55.388;37.844;2023-05-27T02:04:39;18.48;;;16.57;;
26014;SDS011;13793;55.388;37.844;2023-05-27T02:07:20;19.15;;;17.00;;
26014;SDS011;13793;55.388;37.844;2023-05-27T02:09:51;19.98;;;17.60;;
26014;SDS011;13793;55.388;37.844;2023-05-27T02:12:32;20.50;;;18.40;;
26014;SDS011;13793;55.388;37.844;2023-05-27T02:15:05;20.00;;;17.90;;
26014;SDS011;13793;55.388;37.844;2023-05-27T02:17:46;23.12;;;17.30;;
26014;SDS011;13793;55.388;37.844;2023-05-27T02:20:29;19.75;;;17.12;;
26014;SDS011;13793;55.388;37.844;2023-05-27T02:23:00;20.68;;;17.85;;
26014;SDS011;13793;55.388;37.844;2023-05-27T02:25:44;21.55;;;17.07;;
26014;SDS011;13793;55.388;37.844;2023-05-27T02:28:15;19.92;;;17.23;;
26014;SDS011;13793;55.388;37.844;2023-05-27T02:30:57;17.27;;;15.48;;
26014;SDS011;13793;55.388;37.844;2023-05-27T02:33:28;19.25;;;17.12;;
26014;SDS011;13793;55.388;37.844;2023-05-27T02:36:09;18.67;;;15.63;;
26014;SDS011;13793;55.388;37.844;2023-05-27T02:38:40;22.30;;;17.67;;
26014;SDS011;13793;55.388;37.844;2023-05-27T02:41:22;19.35;;;16.48;;
26014;SDS011;13793;55.388;37.844;2023-05-27T02:43:54;21.75;;;17.87;;
26014;SDS011;13793;55.388;37.844;2023-05-27T02:46:34;20.92;;;17.85;;
26014;SDS011;13793;55.388;37.844;2023-05-27T02:49:05;23.22;;;18.87;;
26014;SDS011;13793;55.388;37.844;2023-05-27T02:51:46;22.02;;;17.05;;
26014;SDS011;13793;55.388;37.844;2023-05-27T02:54:17;23.83;;;18.65;;
26014;SDS011;13793;55.388;37.844;2023-05-27T02:56:58;24.32;;;17.67;;
26014;SDS011;13793;55.388;37.844;2023-05-27T02:59:29;21.73;;;17.50;;
26014;SDS011;13793;55.388;37.844;2023-05-27T03:02:10;22.00;;;18.52;;
26014;SDS011;13793;55.388;37.844;2023-05-27T03:04:51;33.80;;;27.17;;
26014;SDS011;13793;55.388;37.844;2023-05-27T03:07:24;36.50;;;27.05;;
26014;SDS011;13793;55.388;37.844;2023-05-27T03:10:06;37.98;;;29.85;;
26014;SDS011;13793;55.388;37.844;2023-05-27T03:12:36;36.48;;;31.35;;
26014;SDS011;13793;55.388;37.844;2023-05-27T03:15:17;34.10;;;30.15;;
26014;SDS011;13793;55.388;37.844;2023-05-27T03:17:48;33.73;;;29.52;;
26014;SDS011;13793;55.388;37.844;2023-05-27T03:20:35;32.88;;;27.40;;
26014;SDS011;13793;55.388;37.844;2023-05-27T03:23:06;31.73;;;28.35;;
26014;SDS011;13793;55.388;37.844;2023-05-27T03:25:46;28.35;;;25.45;;
26014;SDS011;13793;55.388;37.844;2023-05-27T03:28:27;27.27;;;24.40;;
26014;SDS011;13793;55.388;37.844;2023-05-27T03:30:58;24.02;;;21.60;;
26014;SDS011;13793;55.388;37.844;2023-05-27T03:33:53;22.42;;;18.98;;
26014;SDS011;13793;55.388;37.844;2023-05-27T03:36:24;18.35;;;16.32;;
26014;SDS011;13793;55.388;37.844;2023-05-27T03:39:06;18.67;;;15.63;;
26014;SDS011;13793;55.388;37.844;2023-05-27T03:41:37;16.50;;;13.50;;
26014;SDS011;13793;55.388;37.844;2023-05-27T03:44:20;15.00;;;12.43;;
26014;SDS011;13793;55.388;37.844;2023-05-27T03:46:51;16.07;;;13.78;;
26014;SDS011;13793;55.388;37.844;2023-05-27T03:49:31;15.18;;;11.57;;
26014;SDS011;13793;55.388;37.844;2023-05-27T03:52:04;14.78;;;11.57;;
26014;SDS011;13793;55.388;37.844;2023-05-27T03:54:45;12.30;;;11.00;;
26014;SDS011;13793;55.388;37.844;2023-05-27T03:57:16;16.75;;;11.60;;
26014;SDS011;13793;55.388;37.844;2023-05-27T03:59:57;13.65;;;10.70;;
26014;SDS011;13793;55.388;37.844;2023-05-27T04:02:30;12.03;;;10.82;;
26014;SDS011;13793;55.388;37.844;2023-05-27T04:05:11;12.80;;;10.08;;
26014;SDS011;13793;55.388;37.844;2023-05-27T04:07:43;12.30;;;10.53;;
26014;SDS011;13793;55.388;37.844;2023-05-27T04:10:24;11.60;;;10.10;;
26014;SDS011;13793;55.388;37.844;2023-05-27T04:12:57;10.32;;;8.93;;
26014;SDS011;13793;55.388;37.844;2023-05-27T04:15:53;11.28;;;9.25;;
26014;SDS011;13793;55.388;37.844;2023-05-27T04:18:25;12.58;;;8.78;;
26014;SDS011;13793;55.388;37.844;2023-05-27T04:21:06;14.90;;;9.50;;
26014;SDS011;13793;55.388;37.844;2023-05-27T04:23:38;11.18;;;9.30;;
26014;SDS011;13793;55.388;37.844;2023-05-27T04:26:19;11.63;;;9.23;;
26014;SDS011;13793;55.388;37.844;2023-05-27T04:29:01;11.20;;;9.80;;
26014;SDS011;13793;55.388;37.844;2023-05-27T04:31:33;12.75;;;8.25;;
26014;SDS011;13793;55.388;37.844;2023-05-27T04:34:23;10.03;;;8.08;;
26014;SDS011;13793;55.388;37.844;2023-05-27T04:36:55;9.90;;;8.10;;
26014;SDS011;13793;55.388;37.844;2023-05-27T04:39:38;10.80;;;8.10;;
26014;SDS011;13793;55.388;37.844;2023-05-27T04:42:13;9.23;;;7.20;;
26014;SDS011;13793;55.388;37.844;2023-05-27T04:44:56;11.15;;;6.85;;
26014;SDS011;13793;55.388;37.844;2023-05-27T04:47:37;10.23;;;7.00;;
26014;SDS011;13793;55.388;37.844;2023-05-27T04:50:13;10.00;;;7.28;;
26014;SDS011;13793;55.388;37.844;2023-05-27T04:52:54;9.43;;;6.72;;
26014;SDS011;13793;55.388;37.844;2023-05-27T04:55:25;9.13;;;6.62;;
26014;SDS011;13793;55.388;37.844;2023-05-27T04:58:07;8.88;;;6.10;;
26014;SDS011;13793;55.388;37.844;2023-05-27T05:00:38;11.88;;;6.50;;
26014;SDS011;13793;55.388;37.844;2023-05-27T05:03:26;6.97;;;5.62;;
26014;SDS011;13793;55.388;37.844;2023-05-27T05:06:08;8.08;;;5.70;;
26014;SDS011;13793;55.388;37.844;2023-05-27T05:08:49;8.90;;;5.70;;
26014;SDS011;13793;55.388;37.844;2023-05-27T05:11:20;10.05;;;6.00;;
26014;SDS011;13793;55.388;37.844;2023-05-27T05:14:01;13.25;;;6.17;;
26014;SDS011;13793;55.388;37.844;2023-05-27T05:16:32;9.35;;;5.75;;
26014;SDS011;13793;55.388;37.844;2023-05-27T05:19:13;8.68;;;5.80;;
26014;SDS011;13793;55.388;37.844;2023-05-27T05:21:44;9.55;;;6.15;;
26014;SDS011;13793;55.388;37.844;2023-05-27T05:24:25;6.95;;;5.65;;
26014;SDS011;13793;55.388;37.844;2023-05-27T05:26:56;9.23;;;5.65;;
26014;SDS011;13793;55.388;37.844;2023-05-27T05:29:37;7.95;;;4.87;;
26014;SDS011;13793;55.388;37.844;2023-05-27T05:32:09;8.65;;;4.60;;
26014;SDS011;13793;55.388;37.844;2023-05-27T05:34:52;8.25;;;4.58;;
26014;SDS011;13793;55.388;37.844;2023-05-27T05:37:23;5.70;;;4.37;;
26014;SDS011;13793;55.388;37.844;2023-05-27T05:40:04;6.42;;;4.22;;
26014;SDS011;13793;55.388;37.844;2023-05-27T05:42:38;7.80;;;4.95;;
26014;SDS011;13793;55.388;37.844;2023-05-27T05:45:19;7.25;;;4.30;;
26014;SDS011;13793;55.388;37.844;2023-05-27T05:47:50;6.30;;;4.33;;
26014;SDS011;13793;55.388;37.844;2023-05-27T05:50:32;9.08;;;5.20;;
26014;SDS011;13793;55.388;37.844;2023-05-27T05:53:02;6.25;;;4.40;;
26014;SDS011;13793;55.388;37.844;2023-05-27T05:55:44;8.40;;;4.40;;
26014;SDS011;13793;55.388;37.844;2023-05-27T05:58:16;4.65;;;3.80;;
26014;SDS011;13793;55.388;37.844;2023-05-27T06:00:57;6.37;;;3.83;;
26014;SDS011;13793;55.388;37.844;2023-05-27T06:03:46;7.55;;;3.52;;
26014;SDS011;13793;55.388;37.844;2023-05-27T06:06:38;4.37;;;3.33;;
26014;SDS011;13793;55.388;37.844;2023-05-27T06:09:30;6.42;;;3.70;;
26014;SDS011;13793;55.388;37.844;2023-05-27T06:12:12;5.47;;;3.60;;
26014;SDS011;13793;55.388;37.844;2023-05-27T06:14:45;4.60;;;3.30;;
26014;SDS011;13793;55.388;37.844;2023-05-27T06:17:27;7.00;;;3.45;;
26014;SDS011;13793;55.388;37.844;2023-05-27T06:19:58;5.35;;;3.60;;
26014;SDS011;13793;55.388;37.844;2023-05-27T06:22:40;4.50;;;3.35;;
26014;SDS011;13793;55.388;37.844;2023-05-27T06:25:25;7.12;;;3.25;;
26014;SDS011;13793;55.388;37.844;2023-05-27T06:28:00;6.53;;;3.30;;
26014;SDS011;13793;55.388;37.844;2023-05-27T06:30:41;8.00;;;3.70;;
26014;SDS011;13793;55.388;37.844;2023-05-27T06:33:13;6.08;;;3.62;;
26014;SDS011;13793;55.388;37.844;2023-05-27T06:35:54;5.10;;;3.12;;
26014;SDS011;13793;55.388;37.844;2023-05-27T06:38:25;4.12;;;3.33;;
26014;SDS011;13793;55.388;37.844;2023-05-27T06:41:06;8.25;;;3.30;;
26014;SDS011;13793;55.388;37.844;2023-05-27T06:43:39;7.15;;;3.50;;
26014;SDS011;13793;55.388;37.844;2023-05-27T06:46:22;4.15;;;3.02;;
26014;SDS011;13793;55.388;37.844;2023-05-27T06:49:05;5.28;;;2.72;;
26014;SDS011;13793;55.388;37.844;2023-05-27T06:51:38;6.30;;;3.05;;
26014;SDS011;13793;55.388;37.844;2023-05-27T06:54:19;8.25;;;3.33;;
26014;SDS011;13793;55.388;37.844;2023-05-27T06:56:50;7.10;;;3.25;;
26014;SDS011;13793;55.388;37.844;2023-05-27T06:59:55;4.95;;;3.12;;
26014;SDS011;13793;55.388;37.844;2023-05-27T07:02:29;4.60;;;3.10;;
26014;SDS011;13793;55.388;37.844;2023-05-27T07:05:11;7.55;;;3.47;;
26014;SDS011;13793;55.388;37.844;2023-05-27T07:07:42;6.20;;;3.33;;
26014;SDS011;13793;55.388;37.844;2023-05-27T07:10:24;7.90;;;3.05;;
26014;SDS011;13793;55.388;37.844;2023-05-27T07:12:55;6.70;;;2.98;;
26014;SDS011;13793;55.388;37.844;2023-05-27T07:15:40;8.98;;;3.20;;
26014;SDS011;13793;55.388;37.844;2023-05-27T07:18:12;8.75;;;3.00;;
26014;SDS011;13793;55.388;37.844;2023-05-27T07:20:53;6.83;;;2.83;;
26014;SDS011;13793;55.388;37.844;2023-05-27T07:23:24;5.67;;;2.90;;
26014;SDS011;13793;55.388;37.844;2023-05-27T07:26:06;5.75;;;2.70;;
26014;SDS011;13793;55.388;37.844;2023-05-27T07:28:38;7.80;;;2.95;;
26014;SDS011;13793;55.388;37.844;2023-05-27T07:31:20;6.22;;;3.55;;
26014;SDS011;13793;55.388;37.844;2023-05-27T07:34:03;6.90;;;2.92;;
26014;SDS011;13793;55.388;37.844;2023-05-27T07:36:34;6.55;;;2.72;;
26014;SDS011;13793;55.388;37.844;2023-05-27T07:39:15;5.80;;;2.47;;
26014;SDS011;13793;55.388;37.844;2023-05-27T07:41:46;6.40;;;3.00;;
26014;SDS011;13793;55.388;37.844;2023-05-27T07:44:27;4.67;;;2.70;;
26014;SDS011;13793;55.388;37.844;2023-05-27T07:46:58;5.50;;;2.70;;
26014;SDS011;13793;55.388;37.844;2023-05-27T07:49:39;2.70;;;2.15;;
26014;SDS011;13793;55.388;37.844;2023-05-27T07:52:39;5.47;;;2.37;;
26014;SDS011;13793;55.388;37.844;2023-05-27T07:55:11;5.55;;;2.95;;
26014;SDS011;13793;55.388;37.844;2023-05-27T07:57:53;4.75;;;2.72;;
26014;SDS011;13793;55.388;37.844;2023-05-27T08:00:26;8.45;;;2.80;;
26014;SDS011;13793;55.388;37.844;2023-05-27T08:03:06;8.45;;;2.77;;
26014;SDS011;13793;55.388;37.844;2023-05-27T08:05:54;7.30;;;2.42;;
26014;SDS011;13793;55.388;37.844;2023-05-27T08:08:43;3.90;;;2.60;;
26014;SDS011;13793;55.388;37.844;2023-05-27T08:11:33;4.10;;;2.67;;
26014;SDS011;13793;55.388;37.844;2023-05-27T08:14:22;6.12;;;2.58;;
26014;SDS011;13793;55.388;37.844;2023-05-27T08:17:21;4.62;;;2.80;;
26014;SDS011;13793;55.388;37.844;2023-05-27T08:20:04;7.40;;;2.98;;
26014;SDS011;13793;55.388;37.844;2023-05-27T08:22:48;6.35;;;2.72;;
26014;SDS011;13793;55.388;37.844;2023-05-27T08:25:37;4.92;;;2.22;;
26014;SDS011;13793;55.388;37.844;2023-05-27T08:28:22;12.47;;;2.95;;
26014;SDS011;13793;55.388;37.844;2023-05-27T08:31:05;4.37;;;2.30;;
26014;SDS011;13793;55.388;37.844;2023-05-27T08:33:38;6.00;;;2.70;;
26014;SDS011;13793;55.388;37.844;2023-05-27T08:36:19;4.92;;;2.37;;
26014;SDS011;13793;55.388;37.844;2023-05-27T08:38:52;6.70;;;2.58;;
26014;SDS011;13793;55.388;37.844;2023-05-27T08:41:37;5.03;;;2.62;;
26014;SDS011;13793;55.388;37.844;2023-05-27T08:44:08;5.50;;;2.33;;
26014;SDS011;13793;55.388;37.844;2023-05-27T08:46:50;3.92;;;2.12;;
26014;SDS011;13793;55.388;37.844;2023-05-27T08:49:21;5.12;;;2.55;;
26014;SDS011;13793;55.388;37.844;2023-05-27T08:52:02;5.72;;;2.35;;
26014;SDS011;13793;55.388;37.844;2023-05-27T08:54:33;9.43;;;2.72;;
26014;SDS011;13793;55.388;37.844;2023-05-27T08:57:16;3.85;;;1.87;;
26014;SDS011;13793;55.388;37.844;2023-05-27T08:59:47;5.72;;;2.40;;
26014;SDS011;13793;55.388;37.844;2023-05-27T09:02:28;5.10;;;2.30;;
26014;SDS011;13793;55.388;37.844;2023-05-27T09:05:00;5.30;;;2.40;;
26014;SDS011;13793;55.388;37.844;2023-05-27T09:07:40;7.17;;;2.22;;
26014;SDS011;13793;55.388;37.844;2023-05-27T09:10:12;4.53;;;2.40;;
26014;SDS011;13793;55.388;37.844;2023-05-27T09:12:54;4.45;;;2.30;;
26014;SDS011;13793;55.388;37.844;2023-05-27T09:15:26;6.25;;;2.92;;
26014;SDS011;13793;55.388;37.844;2023-05-27T09:18:08;5.22;;;2.42;;
26014;SDS011;13793;55.388;37.844;2023-05-27T09:20:38;8.68;;;2.70;;
26014;SDS011;13793;55.388;37.844;2023-05-27T09:23:19;6.00;;;2.60;;
26014;SDS011;13793;55.388;37.844;2023-05-27T09:25:50;4.28;;;2.80;;
26014;SDS011;13793;55.388;37.844;2023-05-27T09:28:31;4.80;;;2.40;;
26014;SDS011;13793;55.388;37.844;2023-05-27T09:31:05;7.12;;;2.40;;
26014;SDS011;13793;55.388;37.844;2023-05-27T09:33:47;8.00;;;2.72;;
26014;SDS011;13793;55.388;37.844;2023-05-27T09:36:19;6.05;;;2.25;;
26014;SDS011;13793;55.388;37.844;2023-05-27T09:39:03;4.65;;;2.50;;
26014;SDS011;13793;55.388;37.844;2023-05-27T09:41:34;6.58;;;2.85;;
26014;SDS011;13793;55.388;37.844;2023-05-27T09:44:15;5.10;;;2.12;;
26014;SDS011;13793;55.388;37.844;2023-05-27T09:46:46;4.87;;;2.58;;
26014;SDS011;13793;55.388;37.844;2023-05-27T09:49:34;7.30;;;2.87;;
26014;SDS011;13793;55.388;37.844;2023-05-27T09:52:06;6.67;;;2.50;;
26014;SDS011;13793;55.388;37.844;2023-05-27T09:54:53;6.25;;;3.08;;
26014;SDS011;13793;55.388;37.844;2023-05-27T09:57:25;5.35;;;2.60;;
26014;SDS011;13793;55.388;37.844;2023-05-27T10:00:07;6.65;;;2.77;;
26014;SDS011;13793;55.388;37.844;2023-05-27T10:02:53;4.72;;;2.90;;
26014;SDS011;13793;55.388;37.844;2023-05-27T10:05:26;6.30;;;3.30;;
26014;SDS011;13793;55.388;37.844;2023-05-27T10:08:08;5.45;;;2.42;;
26014;SDS011;13793;55.388;37.844;2023-05-27T10:10:41;9.28;;;2.70;;
26014;SDS011;13793;55.388;37.844;2023-05-27T10:13:23;7.10;;;3.60;;
26014;SDS011;13793;55.388;37.844;2023-05-27T10:15:54;7.37;;;3.15;;
26014;SDS011;13793;55.388;37.844;2023-05-27T10:18:41;9.20;;;6.45;;
26014;SDS011;13793;55.388;37.844;2023-05-27T10:21:19;7.00;;;4.08;;
26014;SDS011;13793;55.388;37.844;2023-05-27T10:24:01;5.62;;;3.20;;
26014;SDS011;13793;55.388;37.844;2023-05-27T10:26:43;6.60;;;4.25;;
26014;SDS011;13793;55.388;37.844;2023-05-27T10:29:34;4.58;;;3.10;;
26014;SDS011;13793;55.388;37.844;2023-05-27T10:32:25;5.00;;;3.27;;
26014;SDS011;13793;55.388;37.844;2023-05-27T10:35:06;8.13;;;3.77;;
26014;SDS011;13793;55.388;37.844;2023-05-27T10:37:47;5.40;;;4.03;;
26014;SDS011;13793;55.388;37.844;2023-05-27T10:40:29;10.80;;;4.95;;
26014;SDS011;13793;55.388;37.844;2023-05-27T10:48:50;8.03;;;4.75;;
26014;SDS011;13793;55.388;37.844;2023-05-27T10:51:31;6.03;;;3.95;;
26014;SDS011;13793;55.388;37.844;2023-05-27T10:54:12;7.80;;;3.90;;
26014;SDS011;13793;55.388;37.844;2023-05-27T10:56:54;6.10;;;3.20;;
26014;SDS011;13793;55.388;37.844;2023-05-27T10:59:39;9.05;;;3.25;;
26014;SDS011;13793;55.388;37.844;2023-05-27T11:02:21;9.75;;;4.67;;
26014;SDS011;13793;55.388;37.844;2023-05-27T11:07:48;6.12;;;3.15;;
26014;SDS011;13793;55.388;37.844;2023-05-27T11:10:29;30.60;;;26.07;;
26014;SDS011;13793;55.388;37.844;2023-05-27T11:13:10;10.30;;;7.22;;
26014;SDS011;13793;55.388;37.844;2023-05-27T11:15:51;6.80;;;3.60;;
26014;SDS011;13793;55.388;37.844;2023-05-27T11:18:41;7.05;;;3.10;;
26014;SDS011;13793;55.388;37.844;2023-05-27T11:21:23;7.75;;;3.10;;
26014;SDS011;13793;55.388;37.844;2023-05-27T11:24:13;7.65;;;2.87;;
26014;SDS011;13793;55.388;37.844;2023-05-27T11:26:48;4.83;;;2.72;;
26014;SDS011;13793;55.388;37.844;2023-05-27T11:29:30;6.45;;;3.47;;
26014;SDS011;13793;55.388;37.844;2023-05-27T11:32:10;4.35;;;3.45;;
26014;SDS011;13793;55.388;37.844;2023-05-27T11:34:52;7.42;;;5.25;;
26014;SDS011;13793;55.388;37.844;2023-05-27T11:37:34;10.32;;;3.30;;
26014;SDS011;13793;55.388;37.844;2023-05-27T11:40:19;7.08;;;3.33;;
26014;SDS011;13793;55.388;37.844;2023-05-27T11:43:00;5.37;;;3.05;;
26014;SDS011;13793;55.388;37.844;2023-05-27T11:45:41;5.67;;;2.85;;
26014;SDS011;13793;55.388;37.844;2023-05-27T11:48:22;6.80;;;4.60;;
26014;SDS011;13793;55.388;37.844;2023-05-27T11:51:10;7.85;;;3.85;;
26014;SDS011;13793;55.388;37.844;2023-05-27T11:53:53;34.92;;;14.03;;
26014;SDS011;13793;55.388;37.844;2023-05-27T11:56:34;9.05;;;3.90;;
26014;SDS011;13793;55.388;37.844;2023-05-27T11:59:15;7.30;;;3.20;;
26014;SDS011;13793;55.388;37.844;2023-05-27T12:01:56;6.12;;;3.58;;
26014;SDS011;13793;55.388;37.844;2023-05-27T12:04:57;7.05;;;3.20;;
26014;SDS011;13793;55.388;37.844;2023-05-27T12:07:37;5.50;;;2.85;;
26014;SDS011;13793;55.388;37.844;2023-05-27T12:10:19;6.22;;;3.37;;
26014;SDS011;13793;55.388;37.844;2023-05-27T12:13:03;5.40;;;2.92;;
26014;SDS011;13793;55.388;37.844;2023-05-27T12:15:48;18.40;;;5.95;;
26014;SDS011;13793;55.388;37.844;2023-05-27T12:18:29;5.05;;;2.95;;
26014;SDS011;13793;55.388;37.844;2023-05-27T12:21:09;5.90;;;3.47;;
26014;SDS011;13793;55.388;37.844;2023-05-27T12:23:50;6.67;;;2.90;;
26014;SDS011;13793;55.388;37.844;2023-05-27T12:26:31;7.22;;;3.08;;
26014;SDS011;13793;55.388;37.844;2023-05-27T12:29:12;17.32;;;5.97;;
26014;SDS011;13793;55.388;37.844;2023-05-27T12:31:53;5.95;;;3.20;;
26014;SDS011;13793;55.388;37.844;2023-05-27T12:34:35;4.60;;;2.70;;
26014;SDS011;13793;55.388;37.844;2023-05-27T12:37:16;6.75;;;2.58;;
26014;SDS011;13793;55.388;37.844;2023-05-27T12:39:57;6.78;;;2.95;;
26014;SDS011;13793;55.388;37.844;2023-05-27T12:42:38;6.72;;;2.75;;
26014;SDS011;13793;55.388;37.844;2023-05-27T12:45:20;8.20;;;3.30;;
26014;SDS011;13793;55.388;37.844;2023-05-27T12:47:52;6.12;;;2.60;;
26014;SDS011;13793;55.388;37.844;2023-05-27T12:50:33;8.70;;;2.98;;
26014;SDS011;13793;55.388;37.844;2023-05-27T12:53:13;4.25;;;2.35;;
26014;SDS011;13793;55.388;37.844;2023-05-27T12:55:55;8.98;;;2.70;;
26014;SDS011;13793;55.388;37.844;2023-05-27T12:58:36;5.72;;;2.52;;
26014;SDS011;13793;55.388;37.844;2023-05-27T13:01:16;48.87;;;42.70;;
26014;SDS011;13793;55.388;37.844;2023-05-27T13:03:57;9.15;;;6.70;;
26014;SDS011;13793;55.388;37.844;2023-05-27T13:06:39;7.47;;;5.42;;
26014;SDS011;13793;55.388;37.844;2023-05-27T13:09:20;6.08;;;3.02;;
26014;SDS011;13793;55.388;37.844;2023-05-27T13:12:01;5.35;;;2.60;;
26014;SDS011;13793;55.388;37.844;2023-05-27T13:14:42;6.92;;;3.12;;
26014;SDS011;13793;55.388;37.844;2023-05-27T13:17:23;7.42;;;2.95;;
26014;SDS011;13793;55.388;37.844;2023-05-27T13:20:06;9.50;;;2.95;;
26014;SDS011;13793;55.388;37.844;2023-05-27T13:22:47;6.08;;;2.95;;
26014;SDS011;13793;55.388;37.844;2023-05-27T13:25:29;7.75;;;3.08;;
26014;SDS011;13793;55.388;37.844;2023-05-27T13:28:10;4.90;;;2.70;;
26014;SDS011;13793;55.388;37.844;2023-05-27T13:30:51;4.47;;;2.60;;
26014;SDS011;13793;55.388;37.844;2023-05-27T13:33:32;8.65;;;2.65;;
26014;SDS011;13793;55.388;37.844;2023-05-27T13:36:13;7.03;;;3.10;;
26014;SDS011;13793;55.388;37.844;2023-05-27T13:38:57;4.15;;;2.37;;
26014;SDS011;13793;55.388;37.844;2023-05-27T13:41:38;6.33;;;2.50;;
26014;SDS011;13793;55.388;37.844;2023-05-27T13:44:21;5.00;;;2.77;;
26014;SDS011;13793;55.388;37.844;2023-05-27T13:47:02;5.65;;;2.52;;
26014;SDS011;13793;55.388;37.844;2023-05-27T13:49:44;3.55;;;2.65;;
26014;SDS011;13793;55.388;37.844;2023-05-27T13:52:25;3.42;;;2.47;;
26014;SDS011;13793;55.388;37.844;2023-05-27T13:55:06;5.28;;;2.67;;
26014;SDS011;13793;55.388;37.844;2023-05-27T13:57:48;4.70;;;2.52;;
26014;SDS011;13793;55.388;37.844;2023-05-27T14:00:29;4.53;;;2.70;;
26014;SDS011;13793;55.388;37.844;2023-05-27T14:03:10;5.15;;;2.52;;
26014;SDS011;13793;55.388;37.844;2023-05-27T14:05:51;5.03;;;2.30;;
26014;SDS011;13793;55.388;37.844;2023-05-27T14:08:32;5.95;;;2.47;;
26014;SDS011;13793;55.388;37.844;2023-05-27T14:11:14;10.18;;;2.77;;
26014;SDS011;13793;55.388;37.844;2023-05-27T14:13:54;6.05;;;2.80;;
26014;SDS011;13793;55.388;37.844;2023-05-27T14:16:36;24.18;;;17.62;;
26014;SDS011;13793;55.388;37.844;2023-05-27T14:19:17;7.47;;;4.28;;
26014;SDS011;13793;55.388;37.844;2023-05-27T14:21:58;6.47;;;2.70;;
26014;SDS011;13793;55.388;37.844;2023-05-27T14:24:39;6.47;;;2.50;;
26014;SDS011;13793;55.388;37.844;2023-05-27T14:27:20;7.70;;;5.92;;
26014;SDS011;13793;55.388;37.844;2023-05-27T14:30:01;6.78;;;2.90;;
26014;SDS011;13793;55.388;37.844;2023-05-27T14:32:42;4.55;;;2.77;;
26014;SDS011;13793;55.388;37.844;2023-05-27T14:35:24;7.55;;;2.42;;
26014;SDS011;13793;55.388;37.844;2023-05-27T14:38:06;5.83;;;2.70;;
26014;SDS011;13793;55.388;37.844;2023-05-27T14:40:47;5.78;;;2.70;;
26014;SDS011;13793;55.388;37.844;2023-05-27T14:43:28;5.67;;;2.50;;
26014;SDS011;13793;55.388;37.844;2023-05-27T14:46:09;11.88;;;5.78;;
26014;SDS011;13793;55.388;37.844;2023-05-27T14:48:56;7.85;;;4.83;;
26014;SDS011;13793;55.388;37.844;2023-05-27T14:51:37;7.40;;;3.98;;
26014;SDS011;13793;55.388;37.844;2023-05-27T14:54:18;8.63;;;4.92;;
26014;SDS011;13793;55.388;37.844;2023-05-27T14:56:59;8.00;;;4.60;;
26014;SDS011;13793;55.388;37.844;2023-05-27T14:59:40;7.87;;;4.22;;
26014;SDS011;13793;55.388;37.844;2023-05-27T15:02:21;6.45;;;3.15;;
26014;SDS011;13793;55.388;37.844;2023-05-27T15:05:02;8.95;;;3.20;;
26014;SDS011;13793;55.388;37.844;2023-05-27T15:07:43;7.15;;;2.62;;
26014;SDS011;13793;55.388;37.844;2023-05-27T15:10:27;4.87;;;2.55;;
26014;SDS011;13793;55.388;37.844;2023-05-27T15:13:08;3.60;;;2.55;;
26014;SDS011;13793;55.388;37.844;2023-05-27T15:15:51;5.95;;;2.30;;
26014;SDS011;13793;55.388;37.844;2023-05-27T15:18:32;7.65;;;2.37;;
26014;SDS011;13793;55.388;37.844;2023-05-27T15:21:13;8.00;;;2.40;;
26014;SDS011;13793;55.388;37.844;2023-05-27T15:23:54;7.67;;;2.80;;
26014;SDS011;13793;55.388;37.844;2023-05-27T15:26:35;6.53;;;2.30;;
26014;SDS011;13793;55.388;37.844;2023-05-27T15:29:16;5.60;;;3.95;;
26014;SDS011;13793;55.388;37.844;2023-05-27T15:31:58;5.15;;;2.60;;
26014;SDS011;13793;55.388;37.844;2023-05-27T15:34:45;5.80;;;2.80;;
26014;SDS011;13793;55.388;37.844;2023-05-27T15:37:26;7.47;;;2.50;;
26014;SDS011;13793;55.388;37.844;2023-05-27T15:40:08;6.42;;;2.70;;
26014;SDS011;13793;55.388;37.844;2023-05-27T15:42:50;5.17;;;2.40;;
26014;SDS011;13793;55.388;37.844;2023-05-27T15:45:32;3.77;;;2.42;;
26014;SDS011;13793;55.388;37.844;2023-05-27T15:48:13;8.13;;;2.70;;
26014;SDS011;13793;55.388;37.844;2023-05-27T15:50:54;5.03;;;2.65;;